createdAt,value
2023-01-26T00:00:02.078Z,98.26
2023-01-26T00:05:02.161Z,98.39
2023-01-26T00:10:01.372Z,98.39
2023-01-26T00:25:01.536Z,98.5
2023-01-26T00:30:02.166Z,98.71
2023-01-26T00:35:02.251Z,98.11
2023-01-26T00:40:01.291Z,99.95
2023-01-26T00:45:01.787Z,99.88
2023-01-26T00:50:01.964Z,99.72
2023-01-26T00:55:02.074Z,98.49
2023-01-26T01:00:01.457Z,98.24
2023-01-26T01:05:02.263Z,97.76
2023-01-26T01:10:01.918Z,99.37
2023-01-26T01:15:02.146Z,98.35
2023-01-26T01:20:01.566Z,97.73
2023-01-26T01:25:02.160Z,98.27
2023-01-26T01:30:01.596Z,98.15
2023-01-26T01:35:01.400Z,97.89
2023-01-26T01:40:01.608Z,98.04
2023-01-26T01:45:01.657Z,97.82
2023-01-26T01:50:01.417Z,98.07
2023-01-26T01:55:01.885Z,99.4
2023-01-26T02:00:01.541Z,98.33
2023-01-26T02:05:02.062Z,97.63
2023-01-26T02:10:02.109Z,99.53
2023-01-26T02:15:01.588Z,99.59
2023-01-26T02:20:02.293Z,99.56
2023-01-26T02:25:01.722Z,99.43
2023-01-26T02:30:02.166Z,99.65
2023-01-26T02:35:01.672Z,98.22
2023-01-26T02:40:01.889Z,97.85
2023-01-26T02:45:02.380Z,97.89
2023-01-26T02:50:01.414Z,97.51
2023-01-26T02:55:01.802Z,97.6
2023-01-26T03:00:02.160Z,97.39
2023-01-26T03:05:02.283Z,97.27
2023-01-26T03:10:01.567Z,98.81
2023-01-26T03:15:02.161Z,98.68
2023-01-26T03:20:01.582Z,98.95
2023-01-26T03:25:01.408Z,98.81
2023-01-26T03:30:01.694Z,98.82
2023-01-26T03:35:01.372Z,98.83
2023-01-26T03:40:01.709Z,98.54
2023-01-26T03:45:01.893Z,98.72
2023-01-26T03:50:01.801Z,98.69
2023-01-26T03:55:02.009Z,98.56
2023-01-26T04:00:02.136Z,97.08
2023-01-26T04:05:01.646Z,97.13
2023-01-26T04:10:02.203Z,97.27
2023-01-26T04:15:02.166Z,97.21
2023-01-26T04:20:02.103Z,97.04
2023-01-26T04:25:02.014Z,97.07
2023-01-26T04:30:02.153Z,97.35
2023-01-26T04:35:01.415Z,98.85
2023-01-26T04:40:01.548Z,99.05
2023-01-26T04:45:02.123Z,99.05
2023-01-26T04:50:02.208Z,99.48
2023-01-26T04:55:02.122Z,99.43
2023-01-26T05:00:02.333Z,99.66
2023-01-26T05:05:02.316Z,97.69
2023-01-26T05:10:01.950Z,98.1
2023-01-26T05:15:01.829Z,97.62
2023-01-26T05:20:01.997Z,98.3
2023-01-26T05:25:01.417Z,98.37
2023-01-26T05:30:01.835Z,97.78
2023-01-26T05:35:02.194Z,99.4
2023-01-26T05:40:01.288Z,98.48
2023-01-26T05:45:01.980Z,98.03
2023-01-26T05:50:02.204Z,99.83
2023-01-26T05:55:01.415Z,100
2023-01-26T06:00:01.873Z,99.88
2023-01-26T06:05:02.175Z,98.66
2023-01-26T06:10:01.748Z,98.56
2023-01-26T06:15:01.993Z,98.23
2023-01-26T06:20:01.790Z,98.28
2023-01-26T06:25:02.136Z,98.85
2023-01-26T06:30:01.519Z,100.11
2023-01-26T06:35:01.629Z,98.21
2023-01-26T06:40:01.858Z,98.97
2023-01-26T06:45:02.845Z,98.34
2023-01-26T06:50:01.732Z,100.06
2023-01-26T06:55:01.479Z,98.24
2023-01-26T07:00:01.544Z,98.25
2023-01-26T07:05:01.631Z,98.23
2023-01-26T07:10:01.775Z,98.42
2023-01-26T07:15:01.905Z,98.36
2023-01-26T07:20:01.923Z,98.37
2023-01-26T07:25:01.680Z,98.62
2023-01-26T07:30:01.815Z,98.41
2023-01-26T07:35:01.532Z,98.42
2023-01-26T07:40:01.424Z,100.24
2023-01-26T07:45:01.304Z,98.66
2023-01-26T07:50:01.988Z,98.4
2023-01-26T07:55:01.734Z,98.4
2023-01-26T08:00:02.144Z,99.2
2023-01-26T08:05:01.724Z,98.74
2023-01-26T08:10:01.902Z,98.83
2023-01-26T08:15:01.577Z,98.86
2023-01-26T08:20:02.098Z,98.6
2023-01-26T08:25:02.063Z,98.79
2023-01-26T08:30:02.129Z,98.53
2023-01-26T08:35:01.816Z,98.57
2023-01-26T08:40:01.853Z,98.5
2023-01-26T08:45:01.732Z,98.56
2023-01-26T08:50:01.277Z,98.38
2023-01-26T08:55:01.524Z,98.42
2023-01-26T09:00:02.018Z,98.42
2023-01-26T09:05:01.768Z,98.35
2023-01-26T09:10:01.768Z,98.47
2023-01-26T09:15:02.133Z,98.37
2023-01-26T09:20:01.324Z,98.92
2023-01-26T09:25:01.565Z,98.35
2023-01-26T09:30:02.039Z,98.47
2023-01-26T09:35:01.990Z,98.49
2023-01-26T09:40:02.271Z,98.46
2023-01-26T09:45:01.770Z,98.43
2023-01-26T09:50:01.749Z,98.43
2023-01-26T09:55:01.501Z,98.56
2023-01-26T10:00:01.654Z,98.5
2023-01-26T10:05:02.080Z,98.38
2023-01-26T10:10:01.325Z,98.41
2023-01-26T10:15:01.419Z,98.31
2023-01-26T10:20:01.517Z,98.32
2023-01-26T10:25:01.624Z,98.32
2023-01-26T10:30:01.582Z,98.6
2023-01-26T10:35:01.623Z,98.24
2023-01-26T10:40:01.868Z,99.86
2023-01-26T10:45:01.926Z,98.25
2023-01-26T10:50:02.210Z,98.32
2023-01-26T10:55:01.429Z,100.08
2023-01-26T11:00:01.581Z,98.22
2023-01-26T11:05:01.712Z,98.76
2023-01-26T11:10:01.874Z,98.29
2023-01-26T11:15:01.983Z,99.04
2023-01-26T11:20:01.997Z,98.7
2023-01-26T11:25:02.117Z,98.59
2023-01-26T11:30:01.406Z,98.53
2023-01-26T11:35:01.745Z,98.51
2023-01-26T11:40:01.814Z,98.4
2023-01-26T11:45:02.150Z,98.51
2023-01-26T11:50:01.425Z,98.73
2023-01-26T11:55:01.580Z,98.56
2023-01-26T12:00:02.107Z,98.82
2023-01-26T12:05:01.811Z,98.6
2023-01-26T12:10:01.384Z,98.76
2023-01-26T12:15:03.282Z,98.5
2023-01-26T12:20:01.342Z,98.57
2023-01-26T12:25:28.565Z,98.67
2023-01-26T12:30:02.088Z,98.66
2023-01-26T12:35:01.373Z,98.61
2023-01-26T12:40:01.653Z,98.55
2023-01-26T12:45:02.290Z,98.37
2023-01-26T12:50:01.791Z,98.46
2023-01-26T12:55:02.087Z,98.6
2023-01-26T13:00:02.174Z,98.61
2023-01-26T13:05:02.226Z,98.61
2023-01-26T13:10:01.483Z,98.69
2023-01-26T13:15:01.940Z,98.74
2023-01-26T13:20:02.154Z,98.8
2023-01-26T13:25:02.188Z,98.91
2023-01-26T13:30:02.173Z,98.76
2023-01-26T13:35:03.481Z,98.82
2023-01-26T13:40:01.896Z,98.98
2023-01-26T13:45:01.900Z,98.98
2023-01-26T13:50:02.017Z,98.89
2023-01-26T13:55:01.363Z,99.02
2023-01-26T14:00:01.786Z,99.08
2023-01-26T14:05:02.113Z,99.1
2023-01-26T14:10:01.916Z,99.28
2023-01-26T14:15:01.870Z,99.28
2023-01-26T14:20:02.141Z,98.87
2023-01-26T14:25:02.067Z,99.06
2023-01-26T14:30:01.646Z,99.01
2023-01-26T14:35:01.735Z,99.14
2023-01-26T14:40:01.378Z,99.18
2023-01-26T14:45:02.027Z,99.29
2023-01-26T14:50:02.191Z,99.31
2023-01-26T14:55:01.445Z,99.47
2023-01-26T15:00:01.879Z,99.37
2023-01-26T15:05:01.365Z,99.5
2023-01-26T15:10:01.745Z,99.34
2023-01-26T15:15:02.097Z,99.53
2023-01-26T15:20:02.402Z,99.5
2023-01-26T15:25:02.014Z,99.44
2023-01-26T15:30:01.337Z,99.33
2023-01-26T15:35:02.064Z,99.43
2023-01-26T15:40:02.552Z,99.48
2023-01-26T15:45:01.800Z,99.49
2023-01-26T15:50:02.129Z,99.59
2023-01-26T15:55:02.101Z,99.69
2023-01-26T16:00:02.110Z,99.68
2023-01-26T16:05:01.564Z,99.68
2023-01-26T16:10:02.125Z,99.57
2023-01-26T16:15:01.424Z,99.57
2023-01-26T16:20:02.056Z,99.57
2023-01-26T16:25:02.193Z,99.72
2023-01-26T16:30:02.197Z,99.76
2023-01-26T16:35:01.623Z,99.73
2023-01-26T16:40:01.726Z,99.88
2023-01-26T16:45:01.967Z,99.69
2023-01-26T16:50:02.268Z,99.87
2023-01-26T16:55:02.173Z,99.69
2023-01-26T17:00:02.225Z,99.89
2023-01-26T17:05:02.052Z,99.89
2023-01-26T17:10:02.246Z,100.02
2023-01-26T17:15:01.407Z,100.12
2023-01-26T17:20:17.562Z,100.11
2023-01-26T17:25:02.080Z,100.22
2023-01-26T17:30:01.333Z,100.24
2023-01-26T17:35:01.875Z,100.09
2023-01-26T17:40:01.712Z,100.2
2023-01-26T17:45:02.139Z,100.02
2023-01-26T17:50:02.085Z,100.19
2023-01-26T17:55:02.108Z,100.1
2023-01-26T18:00:02.034Z,99.84
2023-01-26T18:05:02.231Z,100.26
2023-01-26T18:10:01.402Z,100.43
2023-01-26T18:15:01.728Z,100.49
2023-01-26T18:20:02.071Z,100.49
2023-01-26T18:25:01.301Z,100.51
2023-01-26T18:30:01.763Z,100.3
2023-01-26T18:35:02.144Z,100.76
2023-01-26T18:40:01.876Z,100.37
2023-01-26T18:45:01.931Z,100.38
2023-01-26T18:50:01.951Z,100.04
2023-01-26T18:55:02.150Z,99.97
2023-01-26T19:00:02.225Z,99.95
2023-01-26T19:05:02.020Z,100.11
2023-01-26T19:10:02.252Z,100.02
2023-01-26T19:15:01.576Z,100.07
2023-01-26T19:20:01.788Z,100.08
2023-01-26T19:25:02.560Z,100.01
2023-01-26T19:30:01.980Z,99.99
2023-01-26T19:35:02.179Z,100.03
2023-01-26T19:40:02.137Z,100.04
2023-01-26T19:45:02.220Z,100.15
2023-01-26T19:50:02.250Z,100.24
2023-01-26T19:55:01.372Z,100.22
2023-01-26T20:00:01.588Z,100.27
2023-01-26T20:05:01.378Z,100.35
2023-01-26T20:10:01.948Z,100.46
2023-01-26T20:15:02.200Z,100.62
2023-01-26T20:20:02.032Z,100.36
2023-01-26T20:25:01.904Z,100.1
2023-01-26T20:30:01.688Z,100.21
2023-01-26T20:35:01.916Z,100.19
2023-01-26T20:40:01.360Z,100.28
2023-01-26T20:45:01.667Z,100.33
2023-01-26T20:50:01.965Z,100.62
2023-01-26T20:55:01.535Z,100.78
2023-01-26T21:00:01.566Z,100.61
2023-01-26T21:05:01.969Z,100.56
2023-01-26T21:10:02.050Z,100.9
2023-01-26T21:15:01.400Z,100.43
2023-01-26T21:20:01.694Z,100.3
2023-01-26T21:25:01.866Z,100.33
2023-01-26T21:30:01.626Z,100.47
2023-01-26T21:35:01.892Z,100.63
2023-01-26T21:40:01.853Z,100.53
2023-01-26T21:45:01.877Z,100.77
2023-01-26T21:50:01.911Z,100.78
2023-01-26T21:55:01.964Z,100.89
2023-01-26T22:00:02.003Z,101.29
2023-01-26T22:05:02.063Z,101.33
2023-01-26T22:10:01.473Z,101.27
2023-01-26T22:15:01.586Z,101.23
2023-01-26T22:20:01.879Z,101.14
2023-01-26T22:25:01.868Z,101.08
2023-01-26T22:30:02.019Z,101.15
2023-01-26T22:35:02.017Z,101.18
2023-01-26T22:40:02.152Z,101.2
2023-01-26T22:45:02.347Z,101.23
2023-01-26T22:50:01.275Z,101.42
2023-01-26T22:55:01.742Z,101.43
2023-01-26T23:00:01.531Z,101.62
2023-01-26T23:05:02.226Z,101.84
2023-01-26T23:10:01.406Z,101.71
2023-01-26T23:15:01.296Z,101.69
2023-01-26T23:20:02.265Z,101.98
2023-01-26T23:25:02.223Z,102.13
2023-01-26T23:30:10.274Z,102.07
2023-01-26T23:35:01.984Z,102.38
2023-01-26T23:40:02.044Z,102.4
2023-01-26T23:45:01.942Z,102.31
2023-01-26T23:50:01.887Z,102.37
2023-01-26T23:55:01.745Z,102.49
